Time;durP1;ratioP1;P1;durP2;ratioP2;P2;SDS_P1;SDS_P2;PMS_P1;PMS_P2;Temp;Humidity;BMP_temperature;BMP_pressure;BME280_temperature;BME280_humidity;BME280_pressure;Samples;Min_cycle;Max_cycle;Signal;HPM_P1;HPM_P2
2022/07/24 00:00:38;;;;;;;;;14.50;11.25;;;;;22.58;54.46;101742.16;5015645;28;45475;-84
2022/07/24 00:03:03;;;;;;;;;13.50;11.25;;;;;22.67;54.95;101761.94;5015373;28;45501;-85
2022/07/24 00:05:29;;;;;;;;;12.25;11.00;;;;;22.61;55.54;101763.19;4997872;28;45519;-84
2022/07/24 00:07:54;;;;;;;;;15.75;13.25;;;;;22.58;55.54;101755.44;5017864;28;46115;-85
2022/07/24 00:10:19;;;;;;;;;14.00;11.75;;;;;22.52;55.24;101757.59;5001116;28;45448;-84
2022/07/24 00:12:45;;;;;;;;;14.75;13.50;;;;;22.53;55.27;101760.16;5001088;28;45368;-85
2022/07/24 00:15:10;;;;;;;;;14.75;12.00;;;;;22.50;55.50;101765.66;4984702;28;45596;-85
2022/07/24 00:17:36;;;;;;;;;15.75;12.00;;;;;22.47;55.77;101757.03;4984553;28;46955;-85
2022/07/24 00:20:02;;;;;;;;;19.75;15.00;;;;;22.53;55.84;101770.78;5018726;28;45356;-84
2022/07/24 00:22:28;;;;;;;;;15.75;14.25;;;;;22.46;56.45;101756.19;5001077;28;45420;-84
2022/07/24 00:24:53;;;;;;;;;13.50;12.25;;;;;22.35;56.01;101751.56;5001184;28;45245;-84
2022/07/24 00:27:18;;;;;;;;;14.00;12.75;;;;;22.45;55.42;101761.59;4999919;28;64999;-85
2022/07/24 00:29:44;;;;;;;;;11.25;9.75;;;;;22.44;56.26;101766.06;4984583;28;48824;-85
2022/07/24 00:32:09;;;;;;;;;13.75;12.75;;;;;22.39;55.50;101744.25;4996566;28;69411;-85
2022/07/24 00:34:34;;;;;;;;;15.00;12.50;;;;;22.36;55.50;101739.16;4980294;28;63933;-84
2022/07/24 00:37:00;;;;;;;;;15.00;13.50;;;;;22.35;55.71;101732.16;4980282;28;64382;-84
2022/07/24 00:39:25;;;;;;;;;13.50;13.50;;;;;22.34;55.55;101727.78;4981055;28;45459;-85
2022/07/24 00:41:52;;;;;;;;;15.25;10.50;;;;;22.31;55.92;101730.66;4997526;28;66933;-84
2022/07/24 00:44:20;;;;;;;;;14.00;12.75;;;;;22.31;55.64;101728.00;4981540;28;45289;-84
2022/07/24 00:46:46;;;;;;;;;15.00;12.75;;;;;22.29;55.45;101729.88;4998402;28;46179;-85
2022/07/24 00:49:14;;;;;;;;;17.75;14.50;;;;;22.24;55.91;101722.19;4964640;28;45463;-85
2022/07/24 00:51:40;;;;;;;;;15.25;14.50;;;;;22.20;55.56;101729.47;4981035;28;45266;-85
2022/07/24 00:54:10;;;;;;;;;15.50;14.00;;;;;22.21;55.30;101725.88;4996022;28;45494;-85
2022/07/24 00:56:43;;;;;;;;;14.25;12.00;;;;;22.17;55.83;101724.34;5000346;28;46184;-85
2022/07/24 00:59:08;;;;;;;;;14.00;13.00;;;;;22.14;56.17;101718.38;5018181;28;45352;-85
2022/07/24 01:01:36;;;;;;;;;11.75;10.75;;;;;22.07;55.95;101706.47;5000661;28;45397;-85
2022/07/24 01:04:02;;;;;;;;;13.00;11.50;;;;;22.07;56.23;101715.28;5018393;28;45479;-85
2022/07/24 01:06:30;;;;;;;;;13.25;12.25;;;;;22.00;56.25;101706.84;5000476;28;48115;-85
2022/07/24 01:08:56;;;;;;;;;14.50;14.25;;;;;21.92;55.73;101698.53;5000381;28;45423;-86
2022/07/24 01:11:22;;;;;;;;;14.75;11.75;;;;;21.90;56.31;101704.84;4983771;28;45437;-85
2022/07/24 01:13:48;;;;;;;;;11.00;10.00;;;;;21.98;55.98;101719.34;4984110;28;45951;-85
2022/07/24 01:16:14;;;;;;;;;16.25;12.75;;;;;21.88;55.79;101709.38;5000333;28;45415;-85
2022/07/24 01:18:40;;;;;;;;;14.50;11.75;;;;;21.94;55.96;101720.47;4999068;28;45335;-85
2022/07/24 01:21:09;;;;;;;;;12.25;12.25;;;;;21.94;55.78;101730.25;5000088;28;46565;-85
2022/07/24 01:23:34;;;;;;;;;11.50;11.50;;;;;21.86;56.41;101714.81;4982944;28;45308;-85
2022/07/24 01:26:00;;;;;;;;;14.25;11.50;;;;;21.85;56.00;101713.09;5017487;28;45804;-85
2022/07/24 01:28:25;;;;;;;;;11.00;11.00;;;;;21.82;56.33;101718.56;5000195;28;45415;-85
2022/07/24 01:30:51;;;;;;;;;15.25;12.50;;;;;21.78;56.40;101706.47;4999453;28;54942;-84
2022/07/24 01:33:16;;;;;;;;;16.00;12.00;;;;;21.73;56.91;101705.88;4983739;28;45345;-85
2022/07/24 01:35:42;;;;;;;;;12.00;10.25;;;;;21.79;56.76;101710.81;4999751;28;45550;-85
2022/07/24 01:38:09;;;;;;;;;12.00;12.00;;;;;21.72;57.05;101698.88;5000031;28;45298;-85
2022/07/24 01:40:34;;;;;;;;;12.50;12.50;;;;;21.72;56.59;101707.69;4999834;28;45408;-85
2022/07/24 01:43:00;;;;;;;;;17.50;14.50;;;;;21.71;56.46;101707.78;4999842;28;45516;-85
2022/07/24 01:45:25;;;;;;;;;18.50;13.00;;;;;21.65;56.66;101704.53;4999593;28;45601;-85
2022/07/24 01:47:51;;;;;;;;;13.75;13.00;;;;;21.64;57.05;101702.00;4999859;28;45322;-84
2022/07/24 01:50:18;;;;;;;;;14.50;13.75;;;;;21.63;56.18;101706.44;4999792;28;45325;-85
2022/07/24 01:52:44;;;;;;;;;15.00;12.50;;;;;21.58;56.80;101699.72;5000089;28;45458;-85
2022/07/24 01:55:10;;;;;;;;;13.25;13.00;;;;;21.61;57.13;101707.47;5017017;28;45433;-85
2022/07/24 01:57:35;;;;;;;;;18.00;13.00;;;;;21.62;57.05;101706.56;4983082;28;46065;-85
2022/07/24 02:00:01;;;;;;;;;18.50;15.00;;;;;21.54;56.88;101696.38;4999454;28;50127;-85
2022/07/24 02:02:27;;;;;;;;;17.50;13.00;;;;;21.61;57.43;101700.38;4999703;28;45435;-84
2022/07/24 02:04:53;;;;;;;;;15.50;12.50;;;;;21.61;57.33;101707.47;4999231;28;61949;-85
2022/07/24 02:07:18;;;;;;;;;18.25;14.50;;;;;21.46;57.08;101680.97;4999360;28;50874;-84
2022/07/24 02:09:43;;;;;;;;;14.75;14.00;;;;;21.51;57.49;101690.41;4999157;28;45407;-85
2022/07/24 02:12:09;;;;;;;;;13.50;13.50;;;;;21.48;57.37;101686.16;4982629;28;61959;-85
2022/07/24 02:14:34;;;;;;;;;16.50;15.50;;;;;21.50;57.10;101692.22;4999283;28;46060;-85
2022/07/24 02:16:59;;;;;;;;;14.75;12.25;;;;;21.51;57.00;101691.28;4998279;28;67082;-85
2022/07/24 02:19:25;;;;;;;;;16.25;13.75;;;;;21.50;57.41;101696.69;4998898;28;60000;-84
2022/07/24 02:21:50;;;;;;;;;21.50;13.50;;;;;21.52;57.53;101695.63;4999036;28;45575;-84
2022/07/24 02:24:16;;;;;;;;;16.75;15.00;;;;;21.43;57.35;101678.47;4998654;28;45603;-84
2022/07/24 02:26:41;;;;;;;;;20.25;16.25;;;;;21.50;57.41;101683.44;4982644;28;46002;-84
2022/07/24 02:29:06;;;;;;;;;18.25;15.00;;;;;21.46;57.49;101675.66;4999237;28;45455;-84
2022/07/24 02:31:32;;;;;;;;;15.75;14.75;;;;;21.43;57.33;101680.25;4998234;28;54658;-85
2022/07/24 02:33:57;;;;;;;;;17.50;15.50;;;;;21.44;57.47;101681.97;4997795;28;77305;-85
2022/07/24 02:36:22;;;;;;;;;17.00;15.75;;;;;21.40;57.64;101677.81;4998952;28;45509;-85
2022/07/24 02:38:48;;;;;;;;;14.75;14.00;;;;;21.39;58.02;101673.44;4998916;28;45410;-84
2022/07/24 02:41:13;;;;;;;;;21.25;17.00;;;;;21.42;58.20;101682.06;5016819;28;45381;-84
2022/07/24 02:43:40;;;;;;;;;17.50;15.50;;;;;21.33;57.93;101657.94;4998799;28;47564;-85
2022/07/24 02:46:05;;;;;;;;;15.00;14.00;;;;;21.41;57.86;101668.91;5015983;28;59715;-84
2022/07/24 02:48:33;;;;;;;;;21.50;18.75;;;;;21.27;57.65;101643.25;4998273;28;61609;-85
2022/07/24 02:50:58;;;;;;;;;22.50;17.00;;;;;21.33;57.93;101660.59;4998779;28;45381;-84
2022/07/24 02:53:24;;;;;;;;;18.25;16.00;;;;;21.24;57.54;101649.56;4987074;28;46437;-84
2022/07/24 02:55:49;;;;;;;;;20.75;18.75;;;;;21.22;58.99;101637.38;4979256;28;45392;-85
2022/07/24 02:58:17;;;;;;;;;20.75;19.00;;;;;21.33;58.01;101656.13;4978064;28;65108;-84
2022/07/24 03:00:42;;;;;;;;;18.75;17.00;;;;;21.29;59.06;101648.47;4979371;28;45300;-84
2022/07/24 03:03:07;;;;;;;;;19.00;17.00;;;;;21.31;58.56;101651.88;4978829;28;46597;-85
2022/07/24 03:05:33;;;;;;;;;17.25;17.25;;;;;21.27;59.13;101651.22;4994031;28;70945;-84
2022/07/24 03:07:58;;;;;;;;;15.75;15.75;;;;;21.19;58.43;101650.78;4978966;28;45290;-84
2022/07/24 03:10:24;;;;;;;;;20.50;17.75;;;;;21.20;58.54;101644.56;4979025;28;45358;-84
2022/07/24 03:12:49;;;;;;;;;18.75;14.00;;;;;21.21;58.44;101646.25;4978717;28;45319;-83
2022/07/24 03:15:14;;;;;;;;;18.25;16.50;;;;;21.19;58.80;101642.84;4996201;28;45551;-84
2022/07/24 03:17:54;;;;;;;;;16.50;13.75;;;;;21.21;59.02;101646.25;4996558;28;45502;-84
2022/07/24 03:20:21;;;;;;;;;17.00;15.50;;;;;21.12;58.69;101634.44;4978480;28;45348;-85
2022/07/24 03:22:46;;;;;;;;;15.75;13.75;;;;;21.17;59.02;101653.56;4978480;28;47296;-84
2022/07/24 03:25:12;;;;;;;;;16.25;14.50;;;;;21.17;58.66;101657.97;4978607;28;45385;-84
2022/07/24 03:27:38;;;;;;;;;18.50;14.50;;;;;21.13;58.90;101651.16;4996291;28;45335;-85
2022/07/24 03:30:04;;;;;;;;;14.50;14.50;;;;;21.11;58.89;101647.75;4978603;28;45408;-85
2022/07/24 03:32:30;;;;;;;;;19.00;17.00;;;;;21.06;59.05;101648.00;5015755;28;47709;-85
2022/07/24 03:34:55;;;;;;;;;21.75;16.00;;;;;21.04;58.30;101650.78;4997883;28;45369;-84
2022/07/24 03:37:20;;;;;;;;;18.50;14.25;;;;;21.06;58.61;101655.97;4997712;28;58699;-85
2022/07/24 03:39:46;;;;;;;;;15.50;13.50;;;;;21.01;58.65;101648.31;5015771;28;46473;-85
2022/07/24 03:42:11;;;;;;;;;19.00;12.00;;;;;21.04;58.40;101644.59;4997355;28;46265;-85
2022/07/24 03:44:36;;;;;;;;;15.00;13.50;;;;;20.99;58.89;101644.91;4981723;28;45441;-85
2022/07/24 03:47:02;;;;;;;;;14.75;14.00;;;;;21.00;59.20;101643.09;4981463;28;48208;-84
2022/07/24 03:49:27;;;;;;;;;16.00;14.50;;;;;20.91;59.11;101636.53;4981267;28;45416;-84
2022/07/24 03:51:53;;;;;;;;;15.50;14.00;;;;;20.83;58.94;101629.03;4998015;28;46161;-84
2022/07/24 03:54:18;;;;;;;;;13.75;13.00;;;;;20.93;58.88;101647.91;5015607;28;45317;-85
2022/07/24 03:56:43;;;;;;;;;13.25;12.25;;;;;20.91;59.02;101640.97;5015802;28;45420;-84
2022/07/24 03:59:09;;;;;;;;;16.50;13.75;;;;;20.86;58.70;101631.53;4997278;28;63129;-85
2022/07/24 04:01:34;;;;;;;;;17.75;15.00;;;;;20.85;58.83;101636.91;4995640;28;74669;-85
2022/07/24 04:04:04;;;;;;;;;16.00;13.75;;;;;20.84;59.11;101643.16;4981089;28;45351;-84
2022/07/24 04:06:31;;;;;;;;;18.25;13.75;;;;;20.78;59.22;101633.78;5015787;28;45323;-84
2022/07/24 04:08:56;;;;;;;;;16.75;16.00;;;;;20.88;59.33;101652.59;5015459;28;45379;-85
2022/07/24 04:11:21;;;;;;;;;17.25;14.75;;;;;20.86;59.87;101651.84;4997044;28;66992;-84
2022/07/24 04:13:47;;;;;;;;;15.75;14.75;;;;;20.80;60.14;101646.88;5015326;28;60106;-85
2022/07/24 04:16:12;;;;;;;;;16.50;15.00;;;;;20.82;59.47;101651.16;4997961;28;45450;-85
2022/07/24 04:18:37;;;;;;;;;20.75;16.75;;;;;20.76;59.70;101648.84;4997471;28;45377;-85
2022/07/24 04:21:03;;;;;;;;;17.50;14.00;;;;;20.79;60.12;101648.69;4981206;28;47211;-86
2022/07/24 04:23:28;;;;;;;;;15.00;13.00;;;;;20.80;60.00;101653.06;5015000;28;45356;-85
2022/07/24 04:25:54;;;;;;;;;18.50;16.75;;;;;20.81;60.24;101651.25;4997844;28;45364;-85
2022/07/24 04:28:19;;;;;;;;;19.00;17.00;;;;;20.77;59.92;101645.28;4981127;28;45646;-85
2022/07/24 04:30:44;;;;;;;;;23.00;16.00;;;;;20.71;59.63;101635.06;4977840;28;47941;-86
2022/07/24 04:33:10;;;;;;;;;18.75;15.00;;;;;20.84;59.96;101656.38;4995398;28;45379;-86
2022/07/24 04:35:35;;;;;;;;;22.25;18.00;;;;;20.84;59.59;101661.66;4961618;28;45519;-85
2022/07/24 04:38:01;;;;;;;;;19.25;16.00;;;;;20.76;59.73;101642.72;4961529;28;45579;-85
2022/07/24 04:40:26;;;;;;;;;17.75;14.75;;;;;20.77;59.76;101642.63;4961523;28;48342;-85
2022/07/24 04:42:51;;;;;;;;;17.25;15.00;;;;;20.75;60.02;101638.38;4977783;28;45404;-87
2022/07/24 04:45:17;;;;;;;;;17.25;15.50;;;;;20.77;59.82;101639.16;4978226;28;45378;-86
2022/07/24 04:47:42;;;;;;;;;21.75;17.00;;;;;20.81;59.88;101651.25;4961199;28;45401;-85
2022/07/24 04:50:11;;;;;;;;;17.50;16.50;;;;;20.78;59.74;101652.28;4977550;28;46529;-85
2022/07/24 04:52:37;;;;;;;;;18.00;17.25;;;;;20.78;59.79;101647.00;4983231;28;45726;-86
2022/07/24 04:55:03;;;;;;;;;19.75;17.75;;;;;20.77;60.20;101642.63;5000188;28;56531;-86
2022/07/24 04:57:28;;;;;;;;;21.50;17.25;;;;;20.76;60.16;101640.06;5000904;28;45626;-86
2022/07/24 04:59:53;;;;;;;;;19.25;16.00;;;;;20.83;60.46;101649.38;5000697;28;48286;-85
2022/07/24 05:02:19;;;;;;;;;18.50;14.50;;;;;20.81;60.24;101644.16;5000759;28;45388;-86
2022/07/24 05:04:44;;;;;;;;;21.75;19.75;;;;;20.79;60.19;101634.63;5001102;28;45519;-85
2022/07/24 05:07:10;;;;;;;;;20.25;18.75;;;;;20.88;60.40;101649.97;5001315;28;45400;-85
2022/07/24 05:09:35;;;;;;;;;21.25;17.00;;;;;20.84;60.25;101643.16;5001324;28;47133;-85
2022/07/24 05:12:00;;;;;;;;;23.75;18.25;;;;;20.87;60.38;101645.59;5001471;28;45581;-85
2022/07/24 05:14:26;;;;;;;;;19.00;16.00;;;;;20.88;60.52;101644.66;5001415;28;45446;-85
2022/07/24 05:16:51;;;;;;;;;21.50;19.00;;;;;20.83;60.22;101631.69;4984637;28;45373;-85
2022/07/24 05:19:16;;;;;;;;;22.50;18.25;;;;;20.85;60.34;101636.91;4984434;28;48123;-87
2022/07/24 05:21:42;;;;;;;;;19.25;18.75;;;;;20.94;60.26;101644.31;5018913;28;45462;-85
2022/07/24 05:24:07;;;;;;;;;22.50;19.75;;;;;20.91;59.89;101633.03;4983862;28;45438;-85
2022/07/24 05:26:33;;;;;;;;;25.25;18.50;;;;;20.98;59.73;101640.53;5017918;28;45368;-86
2022/07/24 05:28:59;;;;;;;;;23.25;20.00;;;;;20.98;59.80;101642.34;5000016;28;45415;-86
2022/07/24 05:31:25;;;;;;;;;19.75;17.25;;;;;21.06;59.90;101654.19;4999822;28;45313;-85
2022/07/24 05:33:50;;;;;;;;;22.75;17.00;;;;;21.07;59.87;101655.03;4983860;28;45300;-85
2022/07/24 05:36:16;;;;;;;;;21.00;19.00;;;;;21.06;60.11;101646.25;5017907;28;45448;-86
2022/07/24 05:38:41;;;;;;;;;22.50;17.50;;;;;21.11;60.46;101653.06;5017652;28;45593;-85
2022/07/24 05:41:06;;;;;;;;;19.75;18.25;;;;;21.16;60.38;101657.13;5017817;28;45336;-86
2022/07/24 05:43:32;;;;;;;;;21.75;19.00;;;;;21.19;61.03;101648.16;5017366;28;50025;-86
2022/07/24 05:45:57;;;;;;;;;22.75;17.75;;;;;21.24;60.38;101648.72;4999646;28;45370;-86
2022/07/24 05:48:23;;;;;;;;;21.25;20.00;;;;;21.29;60.89;101651.97;4999964;28;45945;-86
2022/07/24 05:50:51;;;;;;;;;17.00;16.00;;;;;21.28;59.90;101647.59;5017680;28;45555;-85
2022/07/24 05:53:19;;;;;;;;;20.00;19.75;;;;;21.24;59.97;101636.34;5017887;28;45520;-86
2022/07/24 05:55:44;;;;;;;;;18.00;15.75;;;;;21.37;60.73;101643.56;4983662;28;45334;-86
2022/07/24 05:58:09;;;;;;;;;22.00;17.25;;;;;21.41;59.58;101642.41;4999180;28;46985;-85
2022/07/24 06:00:35;;;;;;;;;17.00;15.50;;;;;21.47;59.91;101647.41;4999100;28;54967;-86
2022/07/24 06:03:00;;;;;;;;;17.25;16.25;;;;;21.51;60.17;101648.91;4999839;28;45693;-86
2022/07/24 06:05:26;;;;;;;;;17.25;16.00;;;;;21.56;59.86;101643.31;4999021;28;48580;-86
2022/07/24 06:07:54;;;;;;;;;18.75;15.50;;;;;21.57;60.16;101645.88;4999738;28;46377;-86
2022/07/24 06:10:19;;;;;;;;;20.25;15.50;;;;;21.57;59.48;101639.75;4983283;28;45980;-86
2022/07/24 06:12:44;;;;;;;;;18.00;14.75;;;;;21.66;58.70;101649.78;4999010;28;57881;-85
2022/07/24 06:15:10;;;;;;;;;17.25;15.00;;;;;21.63;58.62;101634.91;5016054;28;62328;-86
2022/07/24 06:17:36;;;;;;;;;17.00;14.75;;;;;21.63;58.24;101623.47;4982804;28;47245;-85
2022/07/24 06:20:02;;;;;;;;;14.00;13.00;;;;;21.74;58.17;101628.09;4983016;28;45533;-86
2022/07/24 06:22:29;;;;;;;;;13.75;10.00;;;;;21.81;58.37;101637.38;4999102;28;45440;-86
2022/07/24 06:24:55;;;;;;;;;17.00;15.00;;;;;21.80;57.84;101627.72;4999642;28;45303;-86
2022/07/24 06:27:23;;;;;;;;;19.00;16.25;;;;;21.80;57.81;101620.63;4999223;28;47923;-86
2022/07/24 06:29:56;;;;;;;;;15.50;15.25;;;;;21.89;57.35;101621.84;4982732;28;45691;-86
2022/07/24 06:32:21;;;;;;;;;16.00;14.00;;;;;21.95;57.44;101625.91;5000441;28;45543;-86
2022/07/24 06:34:47;;;;;;;;;17.25;16.00;;;;;22.03;57.33;101634.25;4999066;28;45442;-85
2022/07/24 06:37:12;;;;;;;;;17.25;16.00;;;;;22.09;56.77;101627.69;5016814;28;46660;-85
2022/07/24 06:39:37;;;;;;;;;16.75;15.75;;;;;22.14;56.83;101630.88;4998716;28;51391;-86
2022/07/24 06:42:03;;;;;;;;;20.50;17.50;;;;;22.10;56.82;101617.00;5016775;28;45486;-86
2022/07/24 06:44:29;;;;;;;;;17.00;14.25;;;;;22.11;56.75;101613.38;4998611;28;45448;-85
2022/07/24 06:46:54;;;;;;;;;15.75;15.75;;;;;22.25;56.56;101625.78;4998774;28;48401;-86
2022/07/24 06:49:19;;;;;;;;;17.75;15.25;;;;;22.32;56.57;101624.44;4998026;28;61301;-86
2022/07/24 06:51:47;;;;;;;;;19.50;15.25;;;;;22.35;56.20;101615.44;5016248;28;54086;-86
2022/07/24 06:54:12;;;;;;;;;15.50;14.00;;;;;22.41;56.20;101612.38;4982893;28;45317;-86
2022/07/24 06:56:40;;;;;;;;;15.75;14.25;;;;;22.47;55.89;101616.44;4997692;28;73179;-86
2022/07/24 06:59:05;;;;;;;;;16.50;15.00;;;;;22.57;55.62;101625.50;4998655;28;45747;-86
2022/07/24 07:01:33;;;;;;;;;16.00;14.25;;;;;22.60;55.88;101617.34;4998828;28;45412;-86
2022/07/24 07:03:58;;;;;;;;;17.00;14.00;;;;;22.60;55.63;101609.38;4999044;28;45280;-86
2022/07/24 07:06:24;;;;;;;;;14.25;13.50;;;;;22.72;55.50;101610.38;4998525;28;46940;-86
2022/07/24 07:08:49;;;;;;;;;13.50;13.50;;;;;22.72;55.27;101605.91;4982285;28;45514;-86
2022/07/24 07:11:14;;;;;;;;;21.25;15.25;;;;;22.91;55.01;101624.13;4998807;28;45461;-86
2022/07/24 07:13:40;;;;;;;;;17.75;15.75;;;;;22.93;54.86;101622.19;4981694;28;45377;-86
2022/07/24 07:16:08;;;;;;;;;16.50;14.75;;;;;23.04;55.04;101628.63;4981030;28;47207;-86
2022/07/24 07:18:35;;;;;;;;;15.25;15.25;;;;;23.10;54.69;101633.53;4998154;28;45316;-87
2022/07/24 07:21:01;;;;;;;;;17.75;15.00;;;;;23.11;54.25;101624.63;4998836;28;45370;-86
2022/07/24 07:23:26;;;;;;;;;12.25;11.75;;;;;23.18;54.32;101621.44;4981981;28;45464;-86
2022/07/24 07:25:53;;;;;;;;;15.50;15.00;;;;;23.31;54.12;101617.91;4998175;28;46383;-86
2022/07/24 07:28:19;;;;;;;;;18.25;15.00;;;;;23.37;54.12;101625.50;4981742;28;46015;-86
2022/07/24 07:30:46;;;;;;;;;15.25;14.25;;;;;23.38;53.93;101612.09;4981874;28;45544;-86
2022/07/24 07:33:12;;;;;;;;;16.50;16.50;;;;;23.50;54.42;101621.00;4998667;28;45441;-86
2022/07/24 07:35:38;;;;;;;;;18.00;16.50;;;;;23.57;53.94;101624.94;5016006;28;45617;-86
2022/07/24 07:38:03;;;;;;;;;15.75;14.50;;;;;23.60;53.48;101607.09;4998160;28;45516;-86
2022/07/24 07:40:28;;;;;;;;;22.50;16.75;;;;;23.73;53.90;101616.72;4998505;28;45263;-86
2022/07/24 07:42:54;;;;;;;;;23.00;17.75;;;;;23.77;52.75;101609.38;4981528;28;45324;-86
2022/07/24 07:45:19;;;;;;;;;17.50;15.25;;;;;23.83;53.15;101610.78;5015623;28;45520;-86
2022/07/24 07:47:45;;;;;;;;;16.00;15.00;;;;;23.91;53.58;101613.78;4997976;28;45409;-86
2022/07/24 07:50:10;;;;;;;;;17.50;14.25;;;;;23.95;53.37;101609.94;4998190;28;45335;-87
2022/07/24 07:52:38;;;;;;;;;20.75;16.75;;;;;24.06;52.87;101612.66;5015620;28;45581;-86
2022/07/24 07:55:07;;;;;;;;;17.75;15.50;;;;;24.05;52.64;101599.47;5015612;28;46395;-86
2022/07/24 07:57:37;;;;;;;;;13.00;12.00;;;;;24.10;52.76;101594.66;4997429;28;45530;-86
2022/07/24 08:00:03;;;;;;;;;16.50;16.50;;;;;24.11;52.34;101585.75;5015911;28;45395;-86
2022/07/24 08:02:29;;;;;;;;;20.00;15.00;;;;;24.31;52.19;101603.75;5015978;28;45549;-86
2022/07/24 08:04:54;;;;;;;;;19.75;16.25;;;;;24.36;51.97;101603.41;5015464;28;47218;-86
2022/07/24 08:07:20;;;;;;;;;21.75;17.25;;;;;24.43;52.24;101593.16;4981287;28;45816;-87
2022/07/24 08:09:45;;;;;;;;;14.50;12.00;;;;;24.56;52.16;101601.13;4997742;28;50646;-87
2022/07/24 08:12:10;;;;;;;;;18.25;14.50;;;;;24.60;51.50;101586.63;4981010;28;47421;-87
2022/07/24 08:14:36;;;;;;;;;19.00;16.25;;;;;24.71;51.27;101600.81;4997851;28;46160;-86
2022/07/24 08:17:11;;;;;;;;;21.50;18.00;;;;;24.79;51.31;101597.56;4997837;28;45833;-86
2022/07/24 08:19:37;;;;;;;;;19.25;14.00;;;;;24.88;50.79;101596.03;4999398;28;45487;-86
2022/07/24 08:22:02;;;;;;;;;17.75;14.75;;;;;24.89;50.89;101590.59;4981266;28;45391;-86
2022/07/24 08:24:27;;;;;;;;;18.50;17.00;;;;;24.98;50.59;101578.38;4980343;28;61306;-87
2022/07/24 08:26:53;;;;;;;;;17.25;15.50;;;;;25.05;50.04;101587.56;4981339;28;45426;-87
2022/07/24 08:29:18;;;;;;;;;15.25;14.75;;;;;25.20;49.47;101598.03;4984316;28;45771;-86
2022/07/24 08:31:43;;;;;;;;;19.75;16.25;;;;;25.19;49.16;101583.03;5001318;28;45566;-87
2022/07/24 08:34:12;;;;;;;;;17.25;14.50;;;;;25.35;49.19;101596.00;5001131;28;45431;-87
2022/07/24 08:36:38;;;;;;;;;14.25;13.00;;;;;25.41;49.29;101596.41;5013518;28;45451;-86
2022/07/24 08:39:04;;;;;;;;;12.50;12.25;;;;;25.47;48.79;101589.72;4980747;28;45488;-87
2022/07/24 08:41:33;;;;;;;;;16.50;14.75;;;;;25.51;48.39;101580.53;4964679;28;58041;-88
2022/07/24 08:43:59;;;;;;;;;17.25;15.50;;;;;25.56;48.56;101569.50;4989602;28;45568;-86
2022/07/24 08:46:25;;;;;;;;;14.00;12.75;;;;;25.74;47.46;101588.50;4991646;28;45492;-85
2022/07/24 08:48:51;;;;;;;;;16.25;13.25;;;;;25.75;47.57;101579.53;4999819;28;45375;-86
2022/07/24 08:51:17;;;;;;;;;13.00;11.00;;;;;25.88;47.92;101589.09;4993729;28;64783;-88
2022/07/24 08:53:43;;;;;;;;;13.25;11.25;;;;;25.92;45.88;101579.06;4980240;28;46352;-87
2022/07/24 08:56:09;;;;;;;;;11.25;11.25;;;;;25.95;45.63;101565.47;4981518;28;45484;-84
2022/07/24 08:58:37;;;;;;;;;10.75;10.75;;;;;26.06;45.60;101569.94;5000521;28;45341;-84
2022/07/24 09:01:02;;;;;;;;;10.50;10.25;;;;;26.20;45.69;101566.97;5017596;28;45526;-84
2022/07/24 09:03:28;;;;;;;;;11.00;9.75;;;;;26.25;46.03;101562.13;4987210;28;75806;-83
2022/07/24 09:05:58;;;;;;;;;12.75;12.00;;;;;26.36;45.61;101561.22;4999430;28;72776;-83
2022/07/24 09:08:23;;;;;;;;;11.25;11.25;;;;;26.46;45.79;101558.63;4997677;28;45535;-83
2022/07/24 09:11:00;;;;;;;;;11.50;11.50;;;;;26.51;45.18;101551.09;4984021;28;45601;-85
2022/07/24 09:13:27;;;;;;;;;11.00;10.25;;;;;26.53;45.26;101556.31;4998799;28;46609;-86
2022/07/24 09:15:52;;;;;;;;;11.25;10.25;;;;;26.59;44.79;101550.44;4964398;28;45846;-86
2022/07/24 09:18:31;;;;;;;;;12.00;12.00;;;;;26.62;44.57;101548.41;4980716;28;45440;-86
2022/07/24 09:20:58;;;;;;;;;9.50;9.50;;;;;26.74;44.23;101553.69;4980639;28;45251;-86
2022/07/24 09:23:24;;;;;;;;;10.75;10.00;;;;;26.78;43.82;101549.75;4997787;28;45741;-86
2022/07/24 09:25:54;;;;;;;;;9.50;8.00;;;;;26.87;43.06;101540.13;4964340;28;45495;-86
2022/07/24 09:28:20;;;;;;;;;10.00;9.00;;;;;26.94;42.67;101535.97;4980693;28;45367;-86
2022/07/24 09:30:48;;;;;;;;;11.25;10.00;;;;;27.00;42.91;101528.25;4987112;28;45623;-90
2022/07/24 09:33:13;;;;;;;;;9.75;8.00;;;;;27.14;42.99;101531.56;5001294;28;48300;-88
2022/07/24 09:35:41;;;;;;;;;10.67;10.00;;;;;27.21;42.68;101525.56;5018182;28;45517;-89
2022/07/24 09:38:18;;;;;;;;;10.25;10.00;;;;;27.34;42.54;101533.38;5025032;28;45430;-88
2022/07/24 09:40:50;;;;;;;;;14.25;10.25;;;;;27.28;41.97;101509.00;5017085;28;45398;-87
2022/07/24 09:43:26;;;;;;;;;10.25;7.25;;;;;27.43;42.05;101523.69;5017796;28;45624;-87
2022/07/24 09:46:15;;;;;;;;;6.25;6.25;;;;;27.48;41.40;101517.94;5000120;28;45430;-87
2022/07/24 09:49:05;;;;;;;;;;;;;;;;;;;;;
2022/07/24 09:51:31;;;;;;;;;7.50;6.00;;;;;27.61;41.14;101502.50;5012901;28;71063;-87
2022/07/24 09:53:59;;;;;;;;;10.25;7.75;;;;;27.71;40.89;101499.81;4980025;28;48018;-86
2022/07/24 09:56:29;;;;;;;;;4.50;4.50;;;;;27.84;41.26;101511.13;4979363;28;45856;-87
2022/07/24 09:58:59;;;;;;;;;8.75;8.00;;;;;27.84;40.63;101495.09;4997780;28;45352;-87
2022/07/24 10:01:29;;;;;;;;;11.00;9.50;;;;;28.00;41.01;101499.91;4980726;28;45317;-87
2022/07/24 10:04:00;;;;;;;;;9.75;8.75;;;;;27.97;40.01;101487.66;4998072;28;45478;-88
2022/07/24 10:06:38;;;;;;;;;;;;;;;;;;;;;
2022/07/24 10:09:07;;;;;;;;;6.75;6.75;;;;;28.19;39.13;101499.06;4980984;28;67584;-87
2022/07/24 10:11:46;;;;;;;;;;;;;;;;;;;;;
2022/07/24 10:14:15;;;;;;;;;12.75;8.75;;;;;28.28;39.54;101470.59;4977366;28;76287;-87
2022/07/24 10:17:04;;;;;;;;;9.25;7.75;;;;;28.49;39.61;101497.19;4972527;28;45480;-87
2022/07/24 10:19:42;;;;;;;;;8.25;8.00;;;;;28.49;38.22;101486.50;4980018;28;45323;-88
2022/07/24 10:22:16;;;;;;;;;6.50;3.50;;;;;28.49;38.22;101476.66;4980203;28;45330;-88
2022/07/24 10:25:19;;;;;;;;;8.75;8.00;;;;;28.65;38.12;101492.13;4997298;28;46149;-87
2022/07/24 10:27:53;;;;;;;;;6.25;6.25;;;;;28.65;37.53;101478.75;4993281;28;45396;-87
2022/07/24 10:30:24;;;;;;;;;9.00;9.00;;;;;28.69;37.25;101474.78;4982299;28;45478;-88
2022/07/24 10:32:49;;;;;;;;;6.00;6.00;;;;;28.82;37.18;101485.19;4995778;28;45658;-86
2022/07/24 10:35:20;;;;;;;;;7.00;5.75;;;;;28.96;35.41;101487.38;5015421;28;68887;-89
2022/07/24 10:37:51;;;;;;;;;6.50;5.50;;;;;28.99;36.17;101488.09;4980841;28;46164;-84
2022/07/24 10:40:35;;;;;;;;;5.00;4.50;;;;;28.98;35.18;101491.78;4999301;28;45380;-83
2022/07/24 10:43:09;;;;;;;;;7.00;6.75;;;;;29.00;34.73;101487.94;5008115;28;45369;-82
2022/07/24 10:45:43;;;;;;;;;6.50;5.75;;;;;28.98;35.67;101473.84;4996878;28;45570;-84
2022/07/24 10:48:20;;;;;;;;;6.50;6.00;;;;;29.07;35.64;101475.66;5015343;28;45344;-82
2022/07/24 10:50:58;;;;;;;;;7.25;5.50;;;;;29.17;35.47;101472.13;5008845;28;45394;-83
2022/07/24 10:53:28;;;;;;;;;3.25;3.00;;;;;29.18;34.84;101452.34;5008169;28;45809;-81
2022/07/24 10:56:31;;;;;;;;;5.00;5.00;;;;;29.29;34.60;101468.22;4998910;28;45402;-81
2022/07/24 10:58:57;;;;;;;;;6.50;6.50;;;;;29.38;35.81;101470.00;5016008;28;45848;-81
2022/07/24 11:01:30;;;;;;;;;7.00;6.75;;;;;29.46;35.20;101459.38;5016468;28;45381;-81
2022/07/24 11:03:58;;;;;;;;;6.50;6.00;;;;;29.54;35.55;101458.63;4998390;28;45495;-81
2022/07/24 11:06:45;;;;;;;;;5.00;5.00;;;;;29.62;35.28;101452.50;4998568;28;45495;-81
2022/07/24 11:09:11;;;;;;;;;5.50;3.75;;;;;29.64;34.13;101450.50;4998395;28;45430;-82
2022/07/24 11:11:51;;;;;;;;;7.00;7.00;;;;;29.73;35.13;101447.78;5016196;28;45380;-82
2022/07/24 11:14:24;;;;;;;;;6.00;6.00;;;;;29.77;34.08;101426.03;5016341;28;45389;-82